sensor_id;sensor_type;location;lat;lon;timestamp;P1;durP1;ratioP1;P2;durP2;ratioP2
46751;SDS011;32497;48.936;9.270;2024-03-08T00:02:55;1.93;;;1.00;;
46751;SDS011;32497;48.936;9.270;2024-03-08T00:07:57;8.60;;;1.67;;
46751;SDS011;32497;48.936;9.270;2024-03-08T00:12:58;4.80;;;2.00;;
46751;SDS011;32497;48.936;9.270;2024-03-08T00:18:00;3.03;;;1.50;;
46751;SDS011;32497;48.936;9.270;2024-03-08T00:23:02;1.03;;;0.63;;
46751;SDS011;32497;48.936;9.270;2024-03-08T00:28:04;1.80;;;0.90;;
46751;SDS011;32497;48.936;9.270;2024-03-08T00:33:05;4.03;;;1.17;;
46751;SDS011;32497;48.936;9.270;2024-03-08T00:38:08;1.80;;;1.10;;
46751;SDS011;32497;48.936;9.270;2024-03-08T00:43:09;1.20;;;0.57;;
46751;SDS011;32497;48.936;9.270;2024-03-08T00:48:10;3.30;;;1.57;;
46751;SDS011;32497;48.936;9.270;2024-03-08T00:53:12;3.33;;;2.00;;
46751;SDS011;32497;48.936;9.270;2024-03-08T00:58:13;4.70;;;1.57;;
46751;SDS011;32497;48.936;9.270;2024-03-08T01:03:15;2.67;;;1.63;;
46751;SDS011;32497;48.936;9.270;2024-03-08T01:08:17;1.97;;;1.73;;
46751;SDS011;32497;48.936;9.270;2024-03-08T01:13:18;0.90;;;0.67;;
46751;SDS011;32497;48.936;9.270;2024-03-08T01:18:19;3.37;;;1.40;;
46751;SDS011;32497;48.936;9.270;2024-03-08T01:23:22;2.03;;;1.03;;
46751;SDS011;32497;48.936;9.270;2024-03-08T01:28:23;2.53;;;1.17;;
46751;SDS011;32497;48.936;9.270;2024-03-08T01:33:24;4.23;;;1.37;;
46751;SDS011;32497;48.936;9.270;2024-03-08T01:38:28;3.33;;;0.50;;
46751;SDS011;32497;48.936;9.270;2024-03-08T01:43:29;1.13;;;0.77;;
46751;SDS011;32497;48.936;9.270;2024-03-08T01:48:30;1.17;;;0.83;;
46751;SDS011;32497;48.936;9.270;2024-03-08T01:53:33;0.50;;;0.43;;
46751;SDS011;32497;48.936;9.270;2024-03-08T01:58:36;1.53;;;0.77;;
46751;SDS011;32497;48.936;9.270;2024-03-08T02:03:37;2.20;;;1.27;;
46751;SDS011;32497;48.936;9.270;2024-03-08T02:08:40;1.83;;;0.90;;
46751;SDS011;32497;48.936;9.270;2024-03-08T02:13:42;0.83;;;0.70;;
46751;SDS011;32497;48.936;9.270;2024-03-08T02:18:44;2.73;;;0.93;;
46751;SDS011;32497;48.936;9.270;2024-03-08T02:23:46;2.27;;;0.70;;
46751;SDS011;32497;48.936;9.270;2024-03-08T02:28:47;0.77;;;0.77;;
46751;SDS011;32497;48.936;9.270;2024-03-08T02:33:48;3.60;;;0.77;;
46751;SDS011;32497;48.936;9.270;2024-03-08T02:38:51;1.00;;;0.87;;
46751;SDS011;32497;48.936;9.270;2024-03-08T02:43:52;1.77;;;0.90;;
46751;SDS011;32497;48.936;9.270;2024-03-08T02:48:53;2.90;;;0.90;;
46751;SDS011;32497;48.936;9.270;2024-03-08T02:53:55;1.30;;;0.97;;
46751;SDS011;32497;48.936;9.270;2024-03-08T02:58:56;2.20;;;1.10;;
46751;SDS011;32497;48.936;9.270;2024-03-08T03:03:57;2.20;;;1.40;;
46751;SDS011;32497;48.936;9.270;2024-03-08T03:09:00;1.00;;;0.57;;
46751;SDS011;32497;48.936;9.270;2024-03-08T03:14:01;0.20;;;0.20;;
46751;SDS011;32497;48.936;9.270;2024-03-08T03:19:02;0.90;;;0.83;;
46751;SDS011;32497;48.936;9.270;2024-03-08T03:24:05;3.07;;;0.47;;
46751;SDS011;32497;48.936;9.270;2024-03-08T03:29:07;1.67;;;0.63;;
46751;SDS011;32497;48.936;9.270;2024-03-08T03:34:08;1.23;;;1.07;;
46751;SDS011;32497;48.936;9.270;2024-03-08T03:39:10;0.20;;;0.20;;
46751;SDS011;32497;48.936;9.270;2024-03-08T03:44:11;1.73;;;0.70;;
46751;SDS011;32497;48.936;9.270;2024-03-08T03:49:12;1.37;;;0.50;;
46751;SDS011;32497;48.936;9.270;2024-03-08T03:54:15;3.50;;;1.07;;
46751;SDS011;32497;48.936;9.270;2024-03-08T03:59:16;1.57;;;1.47;;
46751;SDS011;32497;48.936;9.270;2024-03-08T04:04:17;0.30;;;0.30;;
46751;SDS011;32497;48.936;9.270;2024-03-08T04:09:19;1.80;;;1.00;;
46751;SDS011;32497;48.936;9.270;2024-03-08T04:14:21;1.57;;;0.97;;
46751;SDS011;32497;48.936;9.270;2024-03-08T04:19:22;2.10;;;0.87;;
46751;SDS011;32497;48.936;9.270;2024-03-08T04:24:24;1.67;;;0.67;;
46751;SDS011;32497;48.936;9.270;2024-03-08T04:29:25;2.37;;;1.13;;
46751;SDS011;32497;48.936;9.270;2024-03-08T04:34:26;2.67;;;0.70;;
46751;SDS011;32497;48.936;9.270;2024-03-08T04:39:29;2.97;;;1.27;;
46751;SDS011;32497;48.936;9.270;2024-03-08T04:44:31;0.77;;;0.77;;
46751;SDS011;32497;48.936;9.270;2024-03-08T04:49:32;1.43;;;0.40;;
46751;SDS011;32497;48.936;9.270;2024-03-08T04:54:34;1.47;;;0.97;;
46751;SDS011;32497;48.936;9.270;2024-03-08T04:59:36;0.97;;;0.83;;
46751;SDS011;32497;48.936;9.270;2024-03-08T05:04:37;2.10;;;0.77;;
46751;SDS011;32497;48.936;9.270;2024-03-08T05:09:39;2.10;;;1.37;;
46751;SDS011;32497;48.936;9.270;2024-03-08T05:14:40;0.80;;;0.70;;
46751;SDS011;32497;48.936;9.270;2024-03-08T05:19:42;1.97;;;0.87;;
46751;SDS011;32497;48.936;9.270;2024-03-08T05:24:44;1.70;;;1.60;;
46751;SDS011;32497;48.936;9.270;2024-03-08T05:29:45;0.47;;;0.47;;
46751;SDS011;32497;48.936;9.270;2024-03-08T05:34:46;2.73;;;0.90;;
46751;SDS011;32497;48.936;9.270;2024-03-08T05:39:52;1.07;;;0.50;;
46751;SDS011;32497;48.936;9.270;2024-03-08T05:44:53;1.70;;;0.77;;
46751;SDS011;32497;48.936;9.270;2024-03-08T05:49:54;2.90;;;1.63;;
46751;SDS011;32497;48.936;9.270;2024-03-08T05:54:57;1.57;;;0.53;;
46751;SDS011;32497;48.936;9.270;2024-03-08T05:59:58;2.37;;;0.93;;
46751;SDS011;32497;48.936;9.270;2024-03-08T06:04:59;0.50;;;0.50;;
46751;SDS011;32497;48.936;9.270;2024-03-08T06:10:01;2.33;;;0.70;;
46751;SDS011;32497;48.936;9.270;2024-03-08T06:15:03;1.63;;;0.63;;
46751;SDS011;32497;48.936;9.270;2024-03-08T06:20:05;1.83;;;0.97;;
46751;SDS011;32497;48.936;9.270;2024-03-08T06:25:08;1.50;;;1.37;;
46751;SDS011;32497;48.936;9.270;2024-03-08T06:30:10;4.13;;;1.40;;
46751;SDS011;32497;48.936;9.270;2024-03-08T06:35:11;1.03;;;0.63;;
46751;SDS011;32497;48.936;9.270;2024-03-08T06:40:14;0.83;;;0.40;;
46751;SDS011;32497;48.936;9.270;2024-03-08T06:45:15;1.17;;;1.07;;
46751;SDS011;32497;48.936;9.270;2024-03-08T06:50:16;1.60;;;0.57;;
46751;SDS011;32497;48.936;9.270;2024-03-08T06:55:19;3.40;;;1.80;;
46751;SDS011;32497;48.936;9.270;2024-03-08T07:00:20;4.17;;;2.00;;
46751;SDS011;32497;48.936;9.270;2024-03-08T07:05:21;11.57;;;1.80;;
46751;SDS011;32497;48.936;9.270;2024-03-08T07:10:24;2.40;;;1.17;;
46751;SDS011;32497;48.936;9.270;2024-03-08T07:15:25;1.17;;;0.53;;
46751;SDS011;32497;48.936;9.270;2024-03-08T07:20:26;4.47;;;2.77;;
46751;SDS011;32497;48.936;9.270;2024-03-08T07:25:29;3.23;;;1.13;;
46751;SDS011;32497;48.936;9.270;2024-03-08T07:30:30;6.43;;;2.63;;
46751;SDS011;32497;48.936;9.270;2024-03-08T07:35:31;2.53;;;1.63;;
46751;SDS011;32497;48.936;9.270;2024-03-08T07:40:36;4.60;;;1.00;;
46751;SDS011;32497;48.936;9.270;2024-03-08T07:45:37;5.03;;;2.03;;
46751;SDS011;32497;48.936;9.270;2024-03-08T07:50:38;2.17;;;1.47;;
46751;SDS011;32497;48.936;9.270;2024-03-08T07:55:42;2.37;;;1.37;;
46751;SDS011;32497;48.936;9.270;2024-03-08T08:00:43;3.57;;;1.90;;
46751;SDS011;32497;48.936;9.270;2024-03-08T08:05:44;3.77;;;1.80;;
46751;SDS011;32497;48.936;9.270;2024-03-08T08:10:47;3.87;;;1.90;;
46751;SDS011;32497;48.936;9.270;2024-03-08T08:15:48;7.60;;;2.50;;
46751;SDS011;32497;48.936;9.270;2024-03-08T08:20:49;6.73;;;2.33;;
46751;SDS011;32497;48.936;9.270;2024-03-08T08:25:52;4.80;;;2.17;;
46751;SDS011;32497;48.936;9.270;2024-03-08T08:30:53;5.97;;;1.77;;
46751;SDS011;32497;48.936;9.270;2024-03-08T08:35:54;3.23;;;1.73;;
46751;SDS011;32497;48.936;9.270;2024-03-08T08:40:56;21.63;;;2.50;;
46751;SDS011;32497;48.936;9.270;2024-03-08T08:45:57;3.73;;;1.97;;
46751;SDS011;32497;48.936;9.270;2024-03-08T08:50:58;2.97;;;1.50;;
46751;SDS011;32497;48.936;9.270;2024-03-08T08:56:01;7.93;;;2.03;;
46751;SDS011;32497;48.936;9.270;2024-03-08T09:01:02;4.70;;;2.63;;
46751;SDS011;32497;48.936;9.270;2024-03-08T09:06:04;5.60;;;2.00;;
46751;SDS011;32497;48.936;9.270;2024-03-08T09:11:07;2.77;;;1.57;;
46751;SDS011;32497;48.936;9.270;2024-03-08T09:16:08;3.37;;;2.23;;
46751;SDS011;32497;48.936;9.270;2024-03-08T09:21:09;3.50;;;1.30;;
46751;SDS011;32497;48.936;9.270;2024-03-08T09:26:12;4.53;;;2.37;;
46751;SDS011;32497;48.936;9.270;2024-03-08T09:31:13;5.57;;;1.67;;
46751;SDS011;32497;48.936;9.270;2024-03-08T09:36:14;4.37;;;2.57;;
46751;SDS011;32497;48.936;9.270;2024-03-08T09:41:16;4.57;;;1.77;;
46751;SDS011;32497;48.936;9.270;2024-03-08T09:46:17;4.83;;;2.40;;
46751;SDS011;32497;48.936;9.270;2024-03-08T09:51:20;4.77;;;1.60;;
46751;SDS011;32497;48.936;9.270;2024-03-08T09:56:25;4.03;;;1.60;;
46751;SDS011;32497;48.936;9.270;2024-03-08T10:01:28;4.53;;;1.77;;
46751;SDS011;32497;48.936;9.270;2024-03-08T10:06:29;5.67;;;1.80;;
46751;SDS011;32497;48.936;9.270;2024-03-08T10:11:31;5.67;;;1.77;;
46751;SDS011;32497;48.936;9.270;2024-03-08T10:16:32;2.97;;;1.87;;
46751;SDS011;32497;48.936;9.270;2024-03-08T10:21:33;7.23;;;2.33;;
46751;SDS011;32497;48.936;9.270;2024-03-08T10:26:36;4.20;;;2.40;;
46751;SDS011;32497;48.936;9.270;2024-03-08T10:31:37;5.93;;;2.37;;
46751;SDS011;32497;48.936;9.270;2024-03-08T10:36:39;4.43;;;2.23;;
46751;SDS011;32497;48.936;9.270;2024-03-08T10:41:42;7.77;;;2.77;;
46751;SDS011;32497;48.936;9.270;2024-03-08T10:46:49;3.90;;;1.47;;
46751;SDS011;32497;48.936;9.270;2024-03-08T10:52:01;7.63;;;2.80;;
46751;SDS011;32497;48.936;9.270;2024-03-08T10:57:05;8.70;;;2.90;;
46751;SDS011;32497;48.936;9.270;2024-03-08T11:02:07;8.13;;;3.00;;
46751;SDS011;32497;48.936;9.270;2024-03-08T11:07:09;6.63;;;2.63;;
46751;SDS011;32497;48.936;9.270;2024-03-08T11:12:22;3.50;;;1.83;;
46751;SDS011;32497;48.936;9.270;2024-03-08T11:22:49;7.80;;;2.40;;
46751;SDS011;32497;48.936;9.270;2024-03-08T11:27:57;4.07;;;2.30;;
46751;SDS011;32497;48.936;9.270;2024-03-08T11:33:16;4.07;;;1.67;;
46751;SDS011;32497;48.936;9.270;2024-03-08T11:38:57;3.60;;;2.03;;
46751;SDS011;32497;48.936;9.270;2024-03-08T11:44:03;6.57;;;2.27;;
46751;SDS011;32497;48.936;9.270;2024-03-08T11:49:05;5.93;;;1.30;;
46751;SDS011;32497;48.936;9.270;2024-03-08T11:54:10;4.07;;;1.83;;
46751;SDS011;32497;48.936;9.270;2024-03-08T11:59:15;6.73;;;2.30;;
46751;SDS011;32497;48.936;9.270;2024-03-08T12:04:16;4.20;;;2.07;;
46751;SDS011;32497;48.936;9.270;2024-03-08T12:09:17;9.70;;;3.00;;
46751;SDS011;32497;48.936;9.270;2024-03-08T12:14:20;6.07;;;2.57;;
46751;SDS011;32497;48.936;9.270;2024-03-08T12:19:21;4.20;;;1.60;;
46751;SDS011;32497;48.936;9.270;2024-03-08T12:24:22;6.80;;;2.90;;
46751;SDS011;32497;48.936;9.270;2024-03-08T12:29:25;5.30;;;2.43;;
46751;SDS011;32497;48.936;9.270;2024-03-08T12:34:26;6.30;;;2.13;;
46751;SDS011;32497;48.936;9.270;2024-03-08T12:39:29;6.57;;;2.27;;
46751;SDS011;32497;48.936;9.270;2024-03-08T12:44:32;7.37;;;2.50;;
46751;SDS011;32497;48.936;9.270;2024-03-08T12:49:33;8.15;;;3.42;;
46751;SDS011;32497;48.936;9.270;2024-03-08T12:54:34;9.63;;;4.18;;
46751;SDS011;32497;48.936;9.270;2024-03-08T12:59:37;8.23;;;3.38;;
46751;SDS011;32497;48.936;9.270;2024-03-08T13:04:38;8.55;;;3.63;;
46751;SDS011;32497;48.936;9.270;2024-03-08T13:09:39;10.45;;;3.85;;
46751;SDS011;32497;48.936;9.270;2024-03-08T13:14:41;9.05;;;4.07;;
46751;SDS011;32497;48.936;9.270;2024-03-08T13:19:42;8.50;;;3.65;;
46751;SDS011;32497;48.936;9.270;2024-03-08T13:24:44;7.68;;;3.63;;
46751;SDS011;32497;48.936;9.270;2024-03-08T13:29:47;7.53;;;3.58;;
46751;SDS011;32497;48.936;9.270;2024-03-08T13:34:48;9.55;;;4.18;;
46751;SDS011;32497;48.936;9.270;2024-03-08T13:39:49;11.05;;;4.35;;
46751;SDS011;32497;48.936;9.270;2024-03-08T13:44:52;10.32;;;4.25;;
46751;SDS011;32497;48.936;9.270;2024-03-08T13:49:53;10.30;;;3.80;;
46751;SDS011;32497;48.936;9.270;2024-03-08T13:54:54;10.15;;;4.55;;
46751;SDS011;32497;48.936;9.270;2024-03-08T13:59:56;9.93;;;4.18;;
46751;SDS011;32497;48.936;9.270;2024-03-08T14:04:57;12.02;;;4.20;;
46751;SDS011;32497;48.936;9.270;2024-03-08T14:09:59;11.77;;;3.90;;
46751;SDS011;32497;48.936;9.270;2024-03-08T14:15:01;10.63;;;4.03;;
46751;SDS011;32497;48.936;9.270;2024-03-08T14:20:02;8.63;;;3.28;;
46751;SDS011;32497;48.936;9.270;2024-03-08T14:25:04;9.02;;;3.60;;
46751;SDS011;32497;48.936;9.270;2024-03-08T14:30:08;6.75;;;3.45;;
46751;SDS011;32497;48.936;9.270;2024-03-08T14:35:10;7.15;;;3.45;;
46751;SDS011;32497;48.936;9.270;2024-03-08T14:40:11;6.55;;;3.15;;
46751;SDS011;32497;48.936;9.270;2024-03-08T14:45:13;9.18;;;3.70;;
46751;SDS011;32497;48.936;9.270;2024-03-08T14:50:15;7.65;;;3.33;;
46751;SDS011;32497;48.936;9.270;2024-03-08T14:55:17;7.38;;;3.28;;
46751;SDS011;32497;48.936;9.270;2024-03-08T15:00:20;8.50;;;3.72;;
46751;SDS011;32497;48.936;9.270;2024-03-08T15:05:21;8.05;;;3.95;;
46751;SDS011;32497;48.936;9.270;2024-03-08T15:10:23;8.43;;;3.38;;
46751;SDS011;32497;48.936;9.270;2024-03-08T15:15:25;8.77;;;3.45;;
46751;SDS011;32497;48.936;9.270;2024-03-08T15:20:26;7.35;;;3.40;;
46751;SDS011;32497;48.936;9.270;2024-03-08T15:25:27;7.13;;;3.50;;
46751;SDS011;32497;48.936;9.270;2024-03-08T15:30:30;10.30;;;4.00;;
46751;SDS011;32497;48.936;9.270;2024-03-08T15:35:31;8.73;;;3.38;;
46751;SDS011;32497;48.936;9.270;2024-03-08T15:40:32;8.10;;;3.35;;
46751;SDS011;32497;48.936;9.270;2024-03-08T15:45:34;8.32;;;3.67;;
46751;SDS011;32497;48.936;9.270;2024-03-08T15:50:35;6.30;;;2.53;;
46751;SDS011;32497;48.936;9.270;2024-03-08T15:55:37;7.37;;;2.93;;
46751;SDS011;32497;48.936;9.270;2024-03-08T16:00:39;5.63;;;2.23;;
46751;SDS011;32497;48.936;9.270;2024-03-08T16:05:40;7.97;;;3.00;;
46751;SDS011;32497;48.936;9.270;2024-03-08T16:10:42;4.07;;;2.17;;
46751;SDS011;32497;48.936;9.270;2024-03-08T16:15:45;6.00;;;2.47;;
46751;SDS011;32497;48.936;9.270;2024-03-08T16:20:48;2.30;;;1.90;;
46751;SDS011;32497;48.936;9.270;2024-03-08T16:25:50;4.13;;;2.13;;
46751;SDS011;32497;48.936;9.270;2024-03-08T16:30:53;5.23;;;2.30;;
46751;SDS011;32497;48.936;9.270;2024-03-08T16:35:54;6.07;;;2.60;;
46751;SDS011;32497;48.936;9.270;2024-03-08T16:40:55;4.57;;;2.13;;
46751;SDS011;32497;48.936;9.270;2024-03-08T16:45:58;6.63;;;2.47;;
46751;SDS011;32497;48.936;9.270;2024-03-08T16:50:59;2.83;;;1.57;;
46751;SDS011;32497;48.936;9.270;2024-03-08T16:56:00;3.10;;;1.53;;
46751;SDS011;32497;48.936;9.270;2024-03-08T17:01:03;4.03;;;1.60;;
46751;SDS011;32497;48.936;9.270;2024-03-08T17:06:04;4.50;;;1.20;;
46751;SDS011;32497;48.936;9.270;2024-03-08T17:11:05;6.60;;;2.13;;
46751;SDS011;32497;48.936;9.270;2024-03-08T17:16:08;3.60;;;1.50;;
46751;SDS011;32497;48.936;9.270;2024-03-08T17:21:09;5.23;;;1.93;;
46751;SDS011;32497;48.936;9.270;2024-03-08T17:26:10;3.73;;;1.50;;
46751;SDS011;32497;48.936;9.270;2024-03-08T17:31:13;5.17;;;1.47;;
46751;SDS011;32497;48.936;9.270;2024-03-08T17:36:15;7.07;;;2.13;;
46751;SDS011;32497;48.936;9.270;2024-03-08T17:41:16;3.37;;;1.67;;
46751;SDS011;32497;48.936;9.270;2024-03-08T17:46:19;2.67;;;1.30;;
46751;SDS011;32497;48.936;9.270;2024-03-08T17:51:20;3.13;;;1.83;;
46751;SDS011;32497;48.936;9.270;2024-03-08T17:56:21;4.87;;;1.57;;
46751;SDS011;32497;48.936;9.270;2024-03-08T18:01:23;1.33;;;0.70;;
46751;SDS011;32497;48.936;9.270;2024-03-08T18:06:24;3.33;;;1.60;;
46751;SDS011;32497;48.936;9.270;2024-03-08T18:11:26;6.70;;;1.30;;
46751;SDS011;32497;48.936;9.270;2024-03-08T18:16:28;4.53;;;1.90;;
46751;SDS011;32497;48.936;9.270;2024-03-08T18:21:29;2.17;;;1.00;;
46751;SDS011;32497;48.936;9.270;2024-03-08T18:26:30;4.30;;;1.33;;
46751;SDS011;32497;48.936;9.270;2024-03-08T18:31:33;5.67;;;1.53;;
46751;SDS011;32497;48.936;9.270;2024-03-08T18:36:34;4.90;;;1.23;;
46751;SDS011;32497;48.936;9.270;2024-03-08T18:41:35;2.60;;;1.33;;
46751;SDS011;32497;48.936;9.270;2024-03-08T18:46:38;2.67;;;1.50;;
46751;SDS011;32497;48.936;9.270;2024-03-08T18:51:39;4.00;;;1.67;;
46751;SDS011;32497;48.936;9.270;2024-03-08T18:56:40;1.83;;;1.47;;
46751;SDS011;32497;48.936;9.270;2024-03-08T19:01:42;1.93;;;1.27;;
46751;SDS011;32497;48.936;9.270;2024-03-08T19:06:44;2.93;;;1.03;;
46751;SDS011;32497;48.936;9.270;2024-03-08T19:11:45;2.10;;;0.80;;
46751;SDS011;32497;48.936;9.270;2024-03-08T19:16:47;2.00;;;0.70;;
46751;SDS011;32497;48.936;9.270;2024-03-08T19:21:48;2.83;;;1.27;;
46751;SDS011;32497;48.936;9.270;2024-03-08T19:26:49;5.93;;;1.40;;
46751;SDS011;32497;48.936;9.270;2024-03-08T19:31:52;1.10;;;0.70;;
46751;SDS011;32497;48.936;9.270;2024-03-08T19:36:53;0.87;;;0.43;;
46751;SDS011;32497;48.936;9.270;2024-03-08T19:41:54;1.80;;;0.97;;
46751;SDS011;32497;48.936;9.270;2024-03-08T19:46:57;1.83;;;0.90;;
46751;SDS011;32497;48.936;9.270;2024-03-08T19:51:58;3.93;;;1.50;;
46751;SDS011;32497;48.936;9.270;2024-03-08T19:56:59;0.70;;;0.70;;
46751;SDS011;32497;48.936;9.270;2024-03-08T20:02:01;2.83;;;0.90;;
46751;SDS011;32497;48.936;9.270;2024-03-08T20:07:03;1.97;;;0.97;;
46751;SDS011;32497;48.936;9.270;2024-03-08T20:12:04;0.57;;;0.40;;
46751;SDS011;32497;48.936;9.270;2024-03-08T20:17:07;1.23;;;0.57;;
46751;SDS011;32497;48.936;9.270;2024-03-08T20:22:08;1.90;;;0.90;;
46751;SDS011;32497;48.936;9.270;2024-03-08T20:27:09;2.40;;;0.97;;
46751;SDS011;32497;48.936;9.270;2024-03-08T20:32:12;8.50;;;1.33;;
46751;SDS011;32497;48.936;9.270;2024-03-08T20:37:13;1.00;;;0.63;;
46751;SDS011;32497;48.936;9.270;2024-03-08T20:42:14;1.33;;;0.97;;
46751;SDS011;32497;48.936;9.270;2024-03-08T20:47:17;0.70;;;0.53;;
46751;SDS011;32497;48.936;9.270;2024-03-08T20:52:18;3.53;;;1.23;;
46751;SDS011;32497;48.936;9.270;2024-03-08T20:57:19;0.67;;;0.50;;
46751;SDS011;32497;48.936;9.270;2024-03-08T21:02:21;0.53;;;0.23;;
46751;SDS011;32497;48.936;9.270;2024-03-08T21:07:23;3.00;;;0.97;;
46751;SDS011;32497;48.936;9.270;2024-03-08T21:12:24;2.37;;;0.60;;
46751;SDS011;32497;48.936;9.270;2024-03-08T21:17:26;2.00;;;0.83;;
46751;SDS011;32497;48.936;9.270;2024-03-08T21:22:27;1.80;;;0.93;;
46751;SDS011;32497;48.936;9.270;2024-03-08T21:27:28;1.97;;;1.37;;
46751;SDS011;32497;48.936;9.270;2024-03-08T21:32:31;0.80;;;0.63;;
46751;SDS011;32497;48.936;9.270;2024-03-08T21:37:32;2.87;;;1.20;;
46751;SDS011;32497;48.936;9.270;2024-03-08T21:42:33;2.63;;;0.50;;
46751;SDS011;32497;48.936;9.270;2024-03-08T21:47:35;1.10;;;0.40;;
46751;SDS011;32497;48.936;9.270;2024-03-08T21:52:37;5.30;;;0.60;;
46751;SDS011;32497;48.936;9.270;2024-03-08T21:57:38;2.47;;;1.27;;
46751;SDS011;32497;48.936;9.270;2024-03-08T22:02:41;1.50;;;0.80;;
46751;SDS011;32497;48.936;9.270;2024-03-08T22:07:42;5.33;;;0.70;;
46751;SDS011;32497;48.936;9.270;2024-03-08T22:12:44;3.03;;;0.80;;
46751;SDS011;32497;48.936;9.270;2024-03-08T22:17:46;0.33;;;0.33;;
46751;SDS011;32497;48.936;9.270;2024-03-08T22:22:48;1.90;;;1.23;;
46751;SDS011;32497;48.936;9.270;2024-03-08T22:27:49;1.33;;;0.70;;
46751;SDS011;32497;48.936;9.270;2024-03-08T22:32:52;3.90;;;0.77;;
46751;SDS011;32497;48.936;9.270;2024-03-08T22:37:53;1.17;;;0.63;;
46751;SDS011;32497;48.936;9.270;2024-03-08T22:42:54;1.43;;;0.93;;
46751;SDS011;32497;48.936;9.270;2024-03-08T22:47:56;1.07;;;0.70;;
46751;SDS011;32497;48.936;9.270;2024-03-08T22:52:57;2.63;;;0.93;;
46751;SDS011;32497;48.936;9.270;2024-03-08T22:57:58;1.00;;;0.57;;
46751;SDS011;32497;48.936;9.270;2024-03-08T23:03:01;1.40;;;0.60;;
46751;SDS011;32497;48.936;9.270;2024-03-08T23:08:02;2.07;;;0.93;;
46751;SDS011;32497;48.936;9.270;2024-03-08T23:13:04;1.33;;;0.83;;
46751;SDS011;32497;48.936;9.270;2024-03-08T23:18:06;1.23;;;0.50;;
46751;SDS011;32497;48.936;9.270;2024-03-08T23:23:08;2.27;;;0.60;;
46751;SDS011;32497;48.936;9.270;2024-03-08T23:28:10;2.97;;;1.00;;
46751;SDS011;32497;48.936;9.270;2024-03-08T23:33:13;1.83;;;1.33;;
46751;SDS011;32497;48.936;9.270;2024-03-08T23:38:14;2.43;;;0.53;;
46751;SDS011;32497;48.936;9.270;2024-03-08T23:43:15;2.20;;;1.17;;
46751;SDS011;32497;48.936;9.270;2024-03-08T23:48:17;1.20;;;0.67;;
46751;SDS011;32497;48.936;9.270;2024-03-08T23:53:18;0.80;;;0.40;;
46751;SDS011;32497;48.936;9.270;2024-03-08T23:58:19;1.60;;;0.67;;
